Midval, Wyoming
Current Conditions -  °F | °C
As of 4:53 AM on Monday 24 Nov 2014 (Local Time) from KRIW Reporting Station
Clear Clear  
Wind Chill: 15°   Ceiling: Unl
Heat Index: 29°   Visibility: 10mi
Dew Point: 12°   Wind: 23mph
Humidity: 49%   Direction: 290°WNW
Pressure: 29.86"   Gusts: 33mph
Location:  43.1005°N, 108.934°W
Report Text: KRIW 241153Z AUTO 29020G29KT 10SM CLR M02/M11 A2986 RMK AO2 PK WND 29029/1150 SLP132 T10171111 11017 21056 56002
Loading
Personal Weather Stations






























Interactive Weather Map New forecast layout! Learn more

10-Day Weather Forecast

Advertisements
Track Severe Weather on mobile